Terminal Aerodrome Forecast
Issued by NWS

Home | Current Version | Previous Version | Text Only | Print | Product List | Glossary On
Versions: 1 2 3 4 5 6 7 8 9 10 11 12 13 14 15 16
000
FTUS46 KSTO 190500
TAFSMF
TAF
KSMF 190533Z 1906/2006 15008KT P6SM BKN050
      TEMPO 1908/1912 5SM BR
     FM191200 15013KT 4SM -SHRA BR OVC025
     FM200200 16008KT 5SM BR OVC015
      TEMPO 2003/2006 4SM -SHRA BR OVC025=

USA.gov is the U.S. government's official web portal to all federal, state and local government web resources and services.